Time;durP1;ratioP1;P1;durP2;ratioP2;P2;SDS_P1;SDS_P2;PMS_P1;PMS_P2;Temp;Humidity;BMP_temperature;BMP_pressure;BME280_temperature;BME280_humidity;BME280_pressure;Samples;Min_cycle;Max_cycle;Signal;HPM_P1;HPM_P2
2024/01/10 00:01:26;;;;;;;11.43;2.55;;;-1.30;99.90;;;;;;6316339;28;20051;-80
2024/01/10 00:04:28;;;;;;;18.92;2.60;;;-1.30;99.90;;;;;;6317913;28;20532;-80
2024/01/10 00:07:30;;;;;;;13.60;2.80;;;-1.20;99.90;;;;;;6293628;28;20525;-80
2024/01/10 00:10:32;;;;;;;10.77;2.60;;;-1.30;99.90;;;;;;6297679;28;20945;-80
2024/01/10 00:13:33;;;;;;;9.35;2.63;;;-1.30;99.90;;;;;;6308026;28;20106;-79
2024/01/10 00:16:35;;;;;;;10.63;2.92;;;-1.40;99.90;;;;;;6275421;28;20590;-78
2024/01/10 00:19:37;;;;;;;10.18;2.25;;;-1.30;99.90;;;;;;6317706;28;20055;-78
2024/01/10 00:22:38;;;;;;;13.75;2.78;;;-1.30;99.90;;;;;;6275258;28;20086;-78
2024/01/10 00:25:40;;;;;;;8.13;2.17;;;-1.30;99.90;;;;;;6317537;28;20052;-78
2024/01/10 00:28:42;;;;;;;13.35;2.60;;;-1.40;99.90;;;;;;6275516;28;20040;-78
2024/01/10 00:31:44;;;;;;;14.65;2.97;;;-1.30;99.90;;;;;;6288879;28;20102;-78
2024/01/10 00:34:45;;;;;;;12.35;2.50;;;-1.40;99.90;;;;;;6322731;28;20074;-78
2024/01/10 00:37:47;;;;;;;15.45;3.15;;;-1.40;99.90;;;;;;6298228;28;20052;-78
2024/01/10 00:40:49;;;;;;;15.98;2.72;;;-1.30;99.90;;;;;;6322597;28;20051;-78
2024/01/10 00:43:50;;;;;;;16.05;3.20;;;-1.40;99.90;;;;;;6304124;28;20044;-78
2024/01/10 00:46:53;;;;;;;14.43;3.17;;;-1.40;99.90;;;;;;6305062;28;20060;-78
2024/01/10 00:49:55;;;;;;;9.43;2.83;;;-1.40;99.90;;;;;;6298155;28;20511;-78
2024/01/10 00:52:57;;;;;;;7.47;2.15;;;-1.50;99.90;;;;;;6302788;28;20052;-78
2024/01/10 00:55:58;;;;;;;15.15;2.85;;;-1.60;99.90;;;;;;6277893;28;20487;-78
2024/01/10 00:59:00;;;;;;;13.20;2.88;;;-1.60;99.90;;;;;;6311153;28;20502;-78
2024/01/10 01:02:02;;;;;;;13.88;2.65;;;-1.60;99.90;;;;;;6303930;28;20063;-78
2024/01/10 01:05:04;;;;;;;15.02;2.50;;;-1.60;99.90;;;;;;6278562;28;20052;-78
2024/01/10 01:08:06;;;;;;;12.57;2.53;;;-1.50;99.90;;;;;;6321741;28;20052;-78
2024/01/10 01:11:07;;;;;;;12.65;2.72;;;-1.60;99.90;;;;;;6297352;28;20059;-78
2024/01/10 01:14:09;;;;;;;13.30;3.00;;;-1.60;99.90;;;;;;6305656;28;20070;-78
2024/01/10 01:17:11;;;;;;;7.90;2.13;;;-1.60;99.90;;;;;;6313901;28;20052;-78
2024/01/10 01:20:13;;;;;;;11.93;2.17;;;-1.60;99.90;;;;;;6304889;28;20060;-78
2024/01/10 01:23:15;;;;;;;13.35;2.63;;;-1.70;99.90;;;;;;6321530;28;20055;-81
2024/01/10 01:26:23;;;;;;;9.75;2.22;;;-1.80;99.90;;;;;;6272111;28;20095;-80
2024/01/10 01:29:25;;;;;;;17.23;2.50;;;-1.80;99.90;;;;;;6308448;28;20587;-79
2024/01/10 01:32:27;;;;;;;13.38;2.20;;;-1.90;99.90;;;;;;6287649;28;20040;-78
2024/01/10 01:35:29;;;;;;;13.90;2.60;;;-1.90;99.90;;;;;;6321008;28;20059;-78
2024/01/10 01:38:30;;;;;;;12.82;2.55;;;-1.90;99.90;;;;;;6296789;28;20052;-78
2024/01/10 01:41:32;;;;;;;15.52;2.75;;;-1.90;99.90;;;;;;6320996;28;20044;-78
2024/01/10 01:44:34;;;;;;;10.82;2.25;;;-1.90;99.90;;;;;;6300699;28;20543;-78
2024/01/10 01:47:35;;;;;;;11.20;2.20;;;-1.90;99.90;;;;;;6296415;28;20071;-80
2024/01/10 01:50:37;;;;;;;13.00;2.50;;;-1.90;99.90;;;;;;6317877;28;20082;-80
2024/01/10 01:53:39;;;;;;;17.10;2.55;;;-2.00;99.90;;;;;;6321172;28;20162;-80
2024/01/10 01:56:40;;;;;;;14.43;2.88;;;-2.00;99.90;;;;;;6294994;28;20048;-79
2024/01/10 01:59:42;;;;;;;9.90;2.40;;;-2.00;99.90;;;;;;6301273;28;20044;-78
2024/01/10 02:02:44;;;;;;;12.50;1.90;;;-2.00;99.90;;;;;;6294341;28;20139;-78
2024/01/10 02:05:45;;;;;;;10.40;2.40;;;-2.10;99.90;;;;;;6320664;28;20776;-78
2024/01/10 02:08:47;;;;;;;11.73;2.28;;;-2.20;99.90;;;;;;6278959;28;20500;-79
2024/01/10 02:11:48;;;;;;;10.27;2.03;;;-2.20;99.90;;;;;;6306538;28;20048;-78
2024/01/10 02:14:50;;;;;;;11.60;2.78;;;-2.30;99.90;;;;;;6300125;28;20057;-78
2024/01/10 02:17:52;;;;;;;14.48;2.60;;;-2.20;99.90;;;;;;6320639;28;20052;-78
2024/01/10 02:20:53;;;;;;;12.70;2.08;;;-2.20;99.90;;;;;;6296317;28;20052;-80
2024/01/10 02:23:55;;;;;;;11.10;1.92;;;-2.30;99.90;;;;;;6320486;28;20062;-78
2024/01/10 02:26:57;;;;;;;13.35;2.58;;;-2.30;99.90;;;;;;6295963;28;20143;-78
2024/01/10 02:29:58;;;;;;;10.77;2.83;;;-2.30;99.90;;;;;;6319550;28;20048;-78
2024/01/10 02:33:00;;;;;;;15.55;2.72;;;-2.30;99.90;;;;;;6295479;28;20045;-80
2024/01/10 02:36:02;;;;;;;15.10;2.63;;;-2.30;99.90;;;;;;6277832;28;20496;-80
2024/01/10 02:39:03;;;;;;;10.43;2.25;;;-2.20;99.90;;;;;;6268895;28;20052;-78
2024/01/10 02:42:05;;;;;;;14.32;2.38;;;-2.30;99.90;;;;;;6277064;28;20055;-77
2024/01/10 02:45:06;;;;;;;11.35;2.67;;;-2.30;99.90;;;;;;6309754;28;20515;-78
2024/01/10 02:48:08;;;;;;;13.38;2.65;;;-2.40;99.90;;;;;;6301078;28;20058;-78
2024/01/10 02:51:10;;;;;;;10.45;2.67;;;-2.40;99.90;;;;;;6295052;28;20055;-78
2024/01/10 02:54:11;;;;;;;11.55;2.60;;;-2.40;99.90;;;;;;6318953;28;20138;-78
2024/01/10 02:57:13;;;;;;;12.15;2.47;;;-2.40;99.90;;;;;;6295491;28;20067;-77
2024/01/10 03:00:15;;;;;;;11.43;2.58;;;-2.40;99.90;;;;;;6298789;28;20055;-78
2024/01/10 03:03:16;;;;;;;15.10;2.80;;;-2.40;99.90;;;;;;6313261;28;20052;-78
2024/01/10 03:06:18;;;;;;;13.30;2.83;;;-2.40;99.90;;;;;;6319028;28;20052;-77
2024/01/10 03:09:20;;;;;;;13.93;3.00;;;-2.40;99.90;;;;;;6294704;28;20052;-78
2024/01/10 03:12:21;;;;;;;6.88;2.47;;;-2.30;99.90;;;;;;6300562;28;20044;-78
2024/01/10 03:15:23;;;;;;;18.58;2.88;;;-2.40;99.90;;;;;;6289471;28;20059;-79
2024/01/10 03:18:24;;;;;;;13.75;3.13;;;-2.40;99.90;;;;;;6318552;28;20568;-79
2024/01/10 03:21:26;;;;;;;11.45;2.70;;;-2.50;99.90;;;;;;6294374;28;20045;-78
2024/01/10 03:24:28;;;;;;;11.35;2.22;;;-2.50;99.90;;;;;;6303461;28;20064;-79
2024/01/10 03:27:29;;;;;;;16.20;2.97;;;-2.50;99.90;;;;;;6318636;28;20423;-78
2024/01/10 03:30:31;;;;;;;9.38;2.60;;;-2.50;99.90;;;;;;6292635;28;20511;-78
2024/01/10 03:33:33;;;;;;;10.27;2.42;;;-2.50;99.90;;;;;;6311734;28;20420;-78
2024/01/10 03:36:34;;;;;;;12.40;2.47;;;-2.50;99.90;;;;;;6276103;28;20049;-78
2024/01/10 03:39:36;;;;;;;10.18;2.60;;;-2.50;99.90;;;;;;6314627;28;20059;-78
2024/01/10 03:42:37;;;;;;;10.43;2.90;;;-2.50;99.90;;;;;;6318276;28;20761;-78
2024/01/10 03:45:39;;;;;;;7.82;2.13;;;-2.50;99.90;;;;;;6301944;28;20067;-79
2024/01/10 03:48:47;;;;;;;9.38;2.22;;;-2.50;99.90;;;;;;6271420;28;20142;-78
2024/01/10 03:51:49;;;;;;;12.00;2.22;;;-2.50;99.90;;;;;;6289259;28;20095;-79
2024/01/10 03:54:51;;;;;;;13.70;2.90;;;-2.50;99.90;;;;;;6315298;28;20593;-78
2024/01/10 03:57:53;;;;;;;10.85;2.30;;;-2.50;99.90;;;;;;6293908;28;20411;-78
2024/01/10 04:00:54;;;;;;;9.32;2.15;;;-2.50;99.90;;;;;;6300519;28;20059;-78
2024/01/10 04:03:56;;;;;;;16.65;2.50;;;-2.50;99.90;;;;;;6275672;28;20416;-78
2024/01/10 04:06:58;;;;;;;12.38;2.17;;;-2.40;99.90;;;;;;6296547;28;20073;-78
2024/01/10 04:09:59;;;;;;;11.68;2.40;;;-2.50;99.90;;;;;;6275657;28;20048;-78
2024/01/10 04:13:01;;;;;;;15.57;2.35;;;-2.40;99.90;;;;;;6314776;28;20059;-78
2024/01/10 04:16:03;;;;;;;9.20;1.80;;;-2.40;99.90;;;;;;6287311;28;20068;-78
2024/01/10 04:19:05;;;;;;;14.98;2.17;;;-2.40;99.90;;;;;;6278961;28;20109;-78
2024/01/10 04:22:07;;;;;;;8.80;1.73;;;-2.40;99.90;;;;;;6296521;28;20068;-78
2024/01/10 04:25:08;;;;;;;8.55;1.58;;;-2.40;99.90;;;;;;6275023;28;20052;-78
2024/01/10 04:28:10;;;;;;;10.48;2.40;;;-2.40;99.90;;;;;;6296844;28;20733;-79
2024/01/10 04:31:12;;;;;;;7.80;1.77;;;-2.40;99.90;;;;;;6312207;28;20411;-78
2024/01/10 04:34:13;;;;;;;14.45;2.30;;;-2.30;99.90;;;;;;6268278;28;20496;-78
2024/01/10 04:37:15;;;;;;;14.98;2.83;;;-2.30;99.90;;;;;;6308948;28;20059;-78
2024/01/10 04:40:17;;;;;;;12.38;2.13;;;-2.20;99.90;;;;;;6293022;28;20550;-78
2024/01/10 04:43:19;;;;;;;10.20;2.10;;;-2.10;99.90;;;;;;6290559;28;20574;-78
2024/01/10 04:46:20;;;;;;;12.30;1.98;;;-2.10;99.90;;;;;;6294990;28;20462;-78
2024/01/10 04:49:22;;;;;;;11.98;2.17;;;-2.10;99.90;;;;;;6297563;28;20056;-79
2024/01/10 04:52:24;;;;;;;9.30;1.92;;;-2.20;99.90;;;;;;6310540;28;20052;-78
2024/01/10 04:55:25;;;;;;;8.63;1.98;;;-2.10;99.90;;;;;;6293300;28;20052;-79
2024/01/10 04:58:28;;;;;;;11.13;2.30;;;-2.00;99.90;;;;;;6304549;28;20052;-77
2024/01/10 05:01:30;;;;;;;14.55;2.83;;;-2.10;99.90;;;;;;6287898;28;20056;-78
2024/01/10 05:04:31;;;;;;;10.88;1.98;;;-2.10;99.90;;;;;;6292886;28;20570;-78
2024/01/10 05:07:33;;;;;;;13.48;2.38;;;-2.10;99.90;;;;;;6293037;28;20512;-79
2024/01/10 05:10:35;;;;;;;16.70;2.42;;;-2.10;99.90;;;;;;6292532;28;20068;-78
2024/01/10 05:13:36;;;;;;;11.57;2.50;;;-2.00;99.90;;;;;;6285402;28;20048;-78
2024/01/10 05:16:38;;;;;;;11.13;2.08;;;-2.00;99.90;;;;;;6275436;28;20082;-79
2024/01/10 05:19:40;;;;;;;12.82;2.38;;;-2.00;99.90;;;;;;6317199;28;20056;-79
2024/01/10 05:22:42;;;;;;;10.85;2.28;;;-2.00;99.90;;;;;;6297527;28;20133;-79
2024/01/10 05:25:43;;;;;;;12.13;2.08;;;-1.90;99.90;;;;;;6317339;28;20048;-79
2024/01/10 05:28:45;;;;;;;10.82;1.92;;;-1.80;99.90;;;;;;6277159;28;20104;-79
2024/01/10 05:31:46;;;;;;;9.95;1.75;;;-1.80;99.90;;;;;;6322210;28;20131;-79
2024/01/10 05:34:49;;;;;;;14.05;2.38;;;-1.60;99.90;;;;;;6297189;28;20052;-78
2024/01/10 05:37:51;;;;;;;11.77;1.98;;;-1.50;99.90;;;;;;6306203;28;20597;-78
2024/01/10 05:40:52;;;;;;;11.45;1.83;;;-1.50;99.90;;;;;;6318243;28;20071;-78
2024/01/10 05:43:54;;;;;;;9.50;2.03;;;-1.50;99.90;;;;;;6297316;28;20132;-78
2024/01/10 05:46:59;;;;;;;7.72;1.80;;;-1.50;99.90;;;;;;6296559;28;20415;-78
2024/01/10 05:50:01;;;;;;;11.57;2.50;;;-1.60;99.90;;;;;;6319253;28;20052;-79
2024/01/10 05:53:02;;;;;;;12.13;2.15;;;-1.50;99.90;;;;;;6277902;28;20483;-78
2024/01/10 05:56:04;;;;;;;13.40;2.30;;;-1.40;99.90;;;;;;6319714;28;20058;-79
2024/01/10 05:59:06;;;;;;;11.70;3.03;;;-1.30;99.90;;;;;;6280395;28;20056;-79
2024/01/10 06:02:07;;;;;;;9.15;1.50;;;-1.20;99.90;;;;;;6294894;28;20139;-78
2024/01/10 06:05:09;;;;;;;8.68;1.80;;;-1.10;99.90;;;;;;6297776;28;20056;-78
2024/01/10 06:08:11;;;;;;;11.45;2.13;;;-1.20;99.90;;;;;;6307075;28;20068;-78
2024/01/10 06:11:12;;;;;;;10.18;2.30;;;-1.10;99.90;;;;;;6279489;28;20195;-80
2024/01/10 06:14:14;;;;;;;9.43;2.25;;;-1.10;99.90;;;;;;6303060;28;20060;-79
2024/01/10 06:17:16;;;;;;;10.73;1.50;;;-1.10;99.90;;;;;;6277839;28;20048;-79
2024/01/10 06:20:18;;;;;;;11.25;1.98;;;-1.00;99.90;;;;;;6299554;28;20048;-80
2024/01/10 06:23:20;;;;;;;10.82;1.70;;;-1.10;99.90;;;;;;6295409;28;20055;-79
2024/01/10 06:26:22;;;;;;;8.50;2.00;;;-1.00;99.90;;;;;;6298145;28;20055;-79
2024/01/10 06:29:23;;;;;;;9.25;1.80;;;-1.00;99.90;;;;;;6295258;28;20074;-78
2024/01/10 06:32:25;;;;;;;9.80;1.83;;;-1.00;99.90;;;;;;6285923;28;20045;-78
2024/01/10 06:35:27;;;;;;;9.55;2.25;;;-1.00;99.90;;;;;;6297470;28;20057;-78
2024/01/10 06:38:29;;;;;;;10.13;1.90;;;-1.00;99.90;;;;;;6298684;28;20491;-79
2024/01/10 06:41:31;;;;;;;6.88;1.20;;;-1.00;99.90;;;;;;6295547;28;20048;-79
2024/01/10 06:44:33;;;;;;;10.40;1.63;;;-1.00;99.90;;;;;;6301075;28;20051;-78
2024/01/10 06:47:35;;;;;;;9.60;1.85;;;-0.90;99.90;;;;;;6319799;28;20051;-79
2024/01/10 06:50:37;;;;;;;9.57;1.95;;;-0.80;99.90;;;;;;6295220;28;20806;-80
2024/01/10 06:53:39;;;;;;;10.20;1.50;;;-0.80;99.90;;;;;;6319185;28;20056;-80
2024/01/10 06:56:41;;;;;;;12.82;2.05;;;-0.80;99.90;;;;;;6295621;28;20099;-80
2024/01/10 06:59:45;;;;;;;15.32;1.95;;;-0.90;99.90;;;;;;6284194;28;20048;-80
2024/01/10 07:02:48;;;;;;;9.70;1.70;;;-0.90;99.90;;;;;;6295945;28;20053;-80
2024/01/10 07:05:50;;;;;;;14.85;1.85;;;-0.90;99.90;;;;;;6319643;28;20059;-80
2024/01/10 07:08:52;;;;;;;11.20;1.98;;;-0.90;99.90;;;;;;6276668;28;20056;-80
2024/01/10 07:11:53;;;;;;;11.65;1.60;;;-0.90;99.90;;;;;;6318579;28;20058;-80
2024/01/10 07:14:56;;;;;;;7.57;1.50;;;-0.90;99.90;;;;;;6275116;28;20087;-79
2024/01/10 07:17:58;;;;;;;6.38;1.20;;;-1.00;99.90;;;;;;6318538;28;20067;-79
2024/01/10 07:20:59;;;;;;;10.30;1.65;;;-1.00;99.90;;;;;;6294615;28;20151;-80
2024/01/10 07:24:01;;;;;;;10.45;1.77;;;-1.00;99.90;;;;;;6318145;28;20044;-80
2024/01/10 07:27:02;;;;;;;8.05;1.80;;;-0.90;99.90;;;;;;6276998;28;20052;-80
2024/01/10 07:30:04;;;;;;;12.65;2.00;;;-1.00;99.90;;;;;;6312141;28;20172;-80
2024/01/10 07:33:07;;;;;;;7.38;1.52;;;-0.90;99.90;;;;;;6294097;28;20082;-80
2024/01/10 07:36:09;;;;;;;10.40;1.25;;;-0.90;99.90;;;;;;6318049;28;20494;-80
2024/01/10 07:39:11;;;;;;;9.95;1.45;;;-0.90;99.90;;;;;;6318217;28;20414;-80
2024/01/10 07:42:12;;;;;;;9.57;1.73;;;-0.80;99.90;;;;;;6266850;28;20475;-80
2024/01/10 07:45:14;;;;;;;8.43;1.50;;;-0.80;99.90;;;;;;6303816;28;20125;-80
2024/01/10 07:48:15;;;;;;;9.43;1.58;;;-0.80;99.90;;;;;;6318148;28;20044;-80
2024/01/10 07:51:17;;;;;;;12.52;1.60;;;-0.70;99.90;;;;;;6275760;28;20056;-80
2024/01/10 07:54:19;;;;;;;10.55;1.40;;;-0.80;99.90;;;;;;6318103;28;20133;-79
2024/01/10 07:57:21;;;;;;;12.15;1.60;;;-0.80;99.90;;;;;;6318177;28;20051;-81
2024/01/10 08:00:23;;;;;;;10.90;1.60;;;-0.80;99.90;;;;;;6250149;28;20064;-80
2024/01/10 08:03:24;;;;;;;11.27;1.55;;;-0.80;99.90;;;;;;6317956;28;20054;-80
2024/01/10 08:06:26;;;;;;;11.27;1.83;;;-0.90;99.90;;;;;;6293081;28;20518;-79
2024/01/10 08:09:34;;;;;;;11.55;1.75;;;-0.80;99.90;;;;;;6292914;28;20052;-80
2024/01/10 08:12:36;;;;;;;8.00;1.52;;;-0.80;99.90;;;;;;6268801;28;20064;-80
2024/01/10 08:15:37;;;;;;;14.75;1.75;;;-0.70;99.90;;;;;;6314015;28;20101;-80
2024/01/10 08:18:39;;;;;;;8.00;1.55;;;-0.70;99.80;;;;;;6274261;28;20055;-79
2024/01/10 08:21:40;;;;;;;8.13;1.67;;;-0.60;99.20;;;;;;6316865;28;20051;-80
2024/01/10 08:24:44;;;;;;;12.65;1.55;;;-0.60;99.10;;;;;;6288760;28;20056;-79
2024/01/10 08:27:46;;;;;;;13.80;2.20;;;-0.50;99.60;;;;;;6292995;28;20056;-79
2024/01/10 08:30:48;;;;;;;8.02;1.30;;;-0.50;98.40;;;;;;6270114;28;20049;-80
2024/01/10 08:33:49;;;;;;;11.95;2.20;;;-0.40;98.10;;;;;;6269967;28;20052;-80
2024/01/10 08:37:00;;;;;;;12.55;1.73;;;-0.20;97.80;;;;;;6290812;28;20052;-81
2024/01/10 08:40:09;;;;;;;10.10;2.00;;;-0.20;96.70;;;;;;6274824;28;20075;-80
2024/01/10 08:43:33;;;;;;;15.02;1.75;;;0.00;96.10;;;;;;6287821;28;20052;-81
2024/01/10 08:46:37;;;;;;;13.15;1.75;;;0.10;95.50;;;;;;6289018;28;20079;-81
2024/01/10 08:49:39;;;;;;;13.88;1.50;;;0.20;94.40;;;;;;6316511;28;20367;-82
2024/01/10 08:52:41;;;;;;;12.85;1.65;;;0.30;93.10;;;;;;6295661;28;20099;-80
2024/01/10 08:55:43;;;;;;;10.07;2.05;;;0.40;93.30;;;;;;6303903;28;20105;-82
2024/01/10 08:58:44;;;;;;;16.20;2.15;;;0.40;91.90;;;;;;6303010;28;20059;-82
2024/01/10 09:01:46;;;;;;;12.63;1.95;;;0.40;91.90;;;;;;6303295;28;20552;-82
2024/01/10 09:04:48;;;;;;;9.75;1.73;;;0.50;91.40;;;;;;6296787;28;20060;-84
2024/01/10 09:07:49;;;;;;;11.00;1.92;;;0.60;91.00;;;;;;6321821;28;20407;-80
2024/01/10 09:10:51;;;;;;;10.85;1.77;;;0.60;90.40;;;;;;6276987;28;20096;-83
2024/01/10 09:13:53;;;;;;;11.13;1.52;;;0.60;90.00;;;;;;6298591;28;20049;-84
2024/01/10 09:16:54;;;;;;;14.82;1.90;;;0.70;89.40;;;;;;6299439;28;20082;-84
2024/01/10 09:19:57;;;;;;;10.13;2.15;;;0.80;82.60;;;;;;6300665;28;20056;-83
2024/01/10 09:23:00;;;;;;;9.85;1.70;;;0.90;81.40;;;;;;6321526;28;20097;-81
2024/01/10 09:26:02;;;;;;;12.15;1.92;;;1.00;80.50;;;;;;6278683;28;20061;-83
2024/01/10 09:29:05;;;;;;;11.60;1.83;;;1.00;81.40;;;;;;6282303;28;20492;-81
2024/01/10 09:32:07;;;;;;;11.73;1.85;;;1.10;77.90;;;;;;6297972;28;20071;-81
2024/01/10 09:35:09;;;;;;;17.63;2.72;;;1.20;76.50;;;;;;6294826;28;20048;-84
2024/01/10 09:38:11;;;;;;;8.98;2.28;;;1.30;77.70;;;;;;6300061;28;20605;-83
2024/01/10 09:41:13;;;;;;;8.18;1.83;;;1.30;76.60;;;;;;6303228;28;20147;-84
2024/01/10 09:44:15;;;;;;;8.43;1.92;;;1.50;69.90;;;;;;6275219;28;20492;-82
2024/01/10 09:47:16;;;;;;;11.63;2.13;;;1.60;66.90;;;;;;6304479;28;20826;-81
2024/01/10 09:50:18;;;;;;;9.77;2.15;;;2.30;62.20;;;;;;6297968;28;20163;-82
2024/01/10 09:53:20;;;;;;;7.45;1.70;;;3.20;40.50;;;;;;6298063;28;20525;-81
2024/01/10 09:56:21;;;;;;;10.65;1.70;;;4.00;22.40;;;;;;6301084;28;20048;-81
2024/01/10 09:59:23;;;;;;;5.50;1.20;;;4.70;2.60;;;;;;6303333;28;20051;-84
2024/01/10 10:02:25;;;;;;;10.02;1.55;;;5.30;7.40;;;;;;6297146;28;20071;-86
2024/01/10 10:05:26;;;;;;;7.65;1.38;;;5.60;1.00;;;;;;6276477;28;20098;-80
2024/01/10 10:08:28;;;;;;;9.43;1.60;;;6.00;2.10;;;;;;6297575;28;20550;-80
2024/01/10 10:11:30;;;;;;;6.20;1.25;;;6.20;1.00;;;;;;6320003;28;20491;-80
2024/01/10 10:14:32;;;;;;;7.28;1.40;;;6.60;1.00;;;;;;6309377;28;20598;-81
2024/01/10 10:17:33;;;;;;;7.75;1.40;;;6.80;1.00;;;;;;6295249;28;20106;-82
2024/01/10 10:20:37;;;;;;;8.45;1.60;;;7.00;1.00;;;;;;6320211;28;20201;-82
2024/01/10 10:23:39;;;;;;;9.52;1.50;;;7.40;1.00;;;;;;6295702;28;20048;-82
2024/01/10 10:26:41;;;;;;;8.20;1.55;;;7.60;1.00;;;;;;6320634;28;20055;-81
2024/01/10 10:29:43;;;;;;;7.05;1.27;;;7.90;1.00;;;;;;6311100;28;20503;-82
2024/01/10 10:32:48;;;;;;;8.32;1.30;;;8.10;1.00;;;;;;6252796;28;20425;-82
2024/01/10 10:35:50;;;;;;;6.15;1.50;;;8.40;1.00;;;;;;6319291;28;20048;-82
2024/01/10 10:38:54;;;;;;;5.95;1.40;;;8.70;1.00;;;;;;6295344;28;20048;-82
2024/01/10 10:41:57;;;;;;;10.65;1.98;;;9.00;1.00;;;;;;6319623;28;20101;-83
2024/01/10 10:44:59;;;;;;;6.50;1.52;;;9.20;1.00;;;;;;6294132;28;20488;-83
2024/01/10 10:48:01;;;;;;;8.60;1.85;;;9.30;1.00;;;;;;6319494;28;20063;-82
2024/01/10 10:51:03;;;;;;;8.15;1.98;;;9.80;1.00;;;;;;6277952;28;20044;-83
2024/01/10 10:54:05;;;;;;;5.43;1.60;;;9.90;1.00;;;;;;6301834;28;20063;-83
2024/01/10 10:57:07;;;;;;;6.97;1.60;;;9.90;1.00;;;;;;6295593;28;20060;-83
2024/01/10 11:00:10;;;;;;;6.75;1.80;;;10.20;1.00;;;;;;6298854;28;20056;-83
2024/01/10 11:03:12;;;;;;;10.23;2.13;;;10.30;1.00;;;;;;6277151;28;20496;-84
2024/01/10 11:06:13;;;;;;;10.48;1.50;;;10.50;1.00;;;;;;6319828;28;20059;-84
2024/01/10 11:09:17;;;;;;;7.25;1.80;;;10.50;1.00;;;;;;6295319;28;20057;-85
2024/01/10 11:12:19;;;;;;;8.73;1.33;;;10.40;1.00;;;;;;6319640;28;20060;-85
2024/01/10 11:15:23;;;;;;;5.75;1.70;;;10.30;1.00;;;;;;6274673;28;20052;-83
2024/01/10 11:18:25;;;;;;;7.53;1.55;;;10.10;1.00;;;;;;6319346;28;20059;-85
2024/01/10 11:21:27;;;;;;;8.55;1.73;;;10.10;1.00;;;;;;6276990;28;20139;-84
2024/01/10 11:24:29;;;;;;;7.05;1.30;;;10.10;1.00;;;;;;6300675;28;20152;-85
2024/01/10 11:27:30;;;;;;;8.82;1.42;;;10.20;1.00;;;;;;6278811;28;20048;-84
2024/01/10 11:30:32;;;;;;;9.25;1.83;;;10.20;1.00;;;;;;6299390;28;20059;-85
2024/01/10 11:33:34;;;;;;;6.07;1.88;;;9.50;1.00;;;;;;6277770;28;20097;-84
2024/01/10 11:36:36;;;;;;;7.05;1.80;;;9.90;1.00;;;;;;6319449;28;20052;-85
2024/01/10 11:39:37;;;;;;;7.78;1.65;;;9.80;1.00;;;;;;6295455;28;20059;-84
2024/01/10 11:42:39;;;;;;;7.10;1.73;;;9.90;1.00;;;;;;6300531;28;20048;-85
2024/01/10 11:45:40;;;;;;;5.38;1.40;;;9.70;1.00;;;;;;6271118;28;20107;-83
2024/01/10 11:48:42;;;;;;;6.60;1.55;;;9.60;1.00;;;;;;6318708;28;20086;-83
2024/01/10 11:51:44;;;;;;;6.15;1.38;;;8.80;1.00;;;;;;6294525;28;20049;-85
2024/01/10 11:54:48;;;;;;;7.28;1.50;;;9.20;1.00;;;;;;6319789;28;20077;-83
2024/01/10 11:57:50;;;;;;;9.25;2.05;;;9.60;1.00;;;;;;6275771;28;20049;-86
2024/01/10 12:00:52;;;;;;;6.45;1.35;;;9.40;1.00;;;;;;6315158;28;20656;-84
2024/01/10 12:03:54;;;;;;;6.63;1.90;;;9.90;1.00;;;;;;6268663;28;20045;-87
2024/01/10 12:07:15;;;;;;;6.80;1.50;;;10.20;1.00;;;;;;6254126;28;20052;-85
2024/01/10 12:10:17;;;;;;;5.80;1.33;;;10.00;1.00;;;;;;6275460;28;20052;-85
2024/01/10 12:13:18;;;;;;;7.88;1.35;;;10.00;1.00;;;;;;6292769;28;20044;-83
2024/01/10 12:16:20;;;;;;;10.48;1.60;;;10.30;1.00;;;;;;6293340;28;20526;-83
2024/01/10 12:19:21;;;;;;;7.13;1.35;;;9.80;1.00;;;;;;6268385;28;20053;-83
2024/01/10 12:22:23;;;;;;;6.07;1.60;;;9.90;1.00;;;;;;6317407;28;20138;-82
2024/01/10 12:25:25;;;;;;;7.82;1.80;;;10.00;1.00;;;;;;6275574;28;20102;-83
2024/01/10 12:28:27;;;;;;;8.30;2.10;;;9.70;1.00;;;;;;6310412;28;20627;-83
2024/01/10 12:31:28;;;;;;;8.00;1.73;;;9.80;1.00;;;;;;6293664;28;20190;-83
2024/01/10 12:34:30;;;;;;;10.38;1.73;;;10.00;1.00;;;;;;6317801;28;20412;-83
2024/01/10 12:37:32;;;;;;;8.80;1.83;;;9.80;1.00;;;;;;6275890;28;20052;-85
2024/01/10 12:40:33;;;;;;;8.43;1.92;;;10.10;1.00;;;;;;6317306;28;20063;-84
2024/01/10 12:43:35;;;;;;;9.18;2.10;;;10.10;1.00;;;;;;6277093;28;20090;-83
2024/01/10 12:46:37;;;;;;;8.10;2.08;;;10.00;1.00;;;;;;6314837;28;20527;-83
2024/01/10 12:49:38;;;;;;;9.48;2.10;;;9.80;1.00;;;;;;6275226;28;20526;-82
2024/01/10 12:52:42;;;;;;;9.70;2.30;;;9.90;1.00;;;;;;6317506;28;20044;-82
2024/01/10 12:55:43;;;;;;;11.57;1.90;;;10.00;1.00;;;;;;6292874;28;20052;-82
2024/01/10 12:58:45;;;;;;;8.93;1.80;;;9.90;1.00;;;;;;6290884;28;20519;-83
2024/01/10 13:01:47;;;;;;;7.28;2.00;;;9.80;1.00;;;;;;6299343;28;20502;-83
2024/01/10 13:04:48;;;;;;;8.25;1.80;;;9.40;1.00;;;;;;6275175;28;20612;-82
2024/01/10 13:07:51;;;;;;;9.82;1.83;;;9.40;1.00;;;;;;6299168;28;20059;-83
2024/01/10 13:10:53;;;;;;;9.48;2.10;;;9.50;1.00;;;;;;6292927;28;20396;-85
2024/01/10 13:13:54;;;;;;;9.48;2.08;;;9.70;1.00;;;;;;6286902;28;20060;-83
2024/01/10 13:16:56;;;;;;;6.45;1.90;;;9.50;1.00;;;;;;6298805;28;20129;-82
2024/01/10 13:20:01;;;;;;;9.20;1.90;;;9.50;1.00;;;;;;6274791;28;20048;-84
2024/01/10 13:23:03;;;;;;;9.35;1.90;;;9.70;1.00;;;;;;6316552;28;20145;-82
2024/01/10 13:26:05;;;;;;;10.68;1.83;;;9.40;1.00;;;;;;6274699;28;20506;-83
2024/01/10 13:29:07;;;;;;;8.52;2.30;;;9.50;1.00;;;;;;6286933;28;20048;-82
2024/01/10 13:32:10;;;;;;;10.88;2.38;;;9.80;1.00;;;;;;6317562;28;20095;-83
2024/01/10 13:35:13;;;;;;;6.18;1.65;;;9.90;1.00;;;;;;6274838;28;20052;-83
2024/01/10 13:38:15;;;;;;;6.47;2.03;;;10.00;1.00;;;;;;6318517;28;20075;-84
2024/01/10 13:41:17;;;;;;;11.32;2.20;;;9.90;1.00;;;;;;6296494;28;20063;-83
2024/01/10 13:44:20;;;;;;;7.57;1.95;;;10.00;1.00;;;;;;6306234;28;20076;-83
2024/01/10 13:47:22;;;;;;;5.85;1.65;;;9.80;1.00;;;;;;6321659;28;20237;-83
2024/01/10 13:50:25;;;;;;;13.30;2.22;;;9.50;1.00;;;;;;6296972;28;20144;-83
2024/01/10 13:53:27;;;;;;;8.23;1.90;;;9.10;1.00;;;;;;6302559;28;20060;-83
2024/01/10 13:56:29;;;;;;;7.57;1.90;;;8.30;1.00;;;;;;6296816;28;20127;-81
2024/01/10 13:59:32;;;;;;;10.20;1.58;;;7.80;1.00;;;;;;6305844;28;20060;-83
2024/01/10 14:02:35;;;;;;;9.13;1.80;;;7.30;1.00;;;;;;6303139;28;20059;-82
2024/01/10 14:05:37;;;;;;;9.15;1.90;;;6.90;1.00;;;;;;6297618;28;20056;-84
2024/01/10 14:08:41;;;;;;;5.13;1.63;;;6.70;1.00;;;;;;6321179;28;20070;-84
2024/01/10 14:11:44;;;;;;;12.13;2.10;;;6.50;1.00;;;;;;6278896;28;20052;-85
2024/01/10 14:14:45;;;;;;;9.63;1.90;;;6.30;1.00;;;;;;6285224;28;20084;-83
2024/01/10 14:17:48;;;;;;;9.80;2.00;;;6.20;1.00;;;;;;6320789;28;20055;-84
2024/01/10 14:20:50;;;;;;;7.32;1.52;;;6.10;1.00;;;;;;6278232;28;20146;-81
2024/01/10 14:23:52;;;;;;;12.00;1.75;;;6.00;1.00;;;;;;6302222;28;20058;-86
2024/01/10 14:26:54;;;;;;;6.43;1.70;;;5.90;1.00;;;;;;6276164;28;20461;-81
2024/01/10 14:29:56;;;;;;;11.50;1.75;;;5.80;1.00;;;;;;6271369;28;20060;-85
2024/01/10 14:32:59;;;;;;;6.40;1.63;;;5.60;1.00;;;;;;6278177;28;20490;-82
2024/01/10 14:36:02;;;;;;;9.30;1.50;;;5.60;1.00;;;;;;6297013;28;20143;-86
2024/01/10 14:39:07;;;;;;;7.35;1.70;;;5.60;1.00;;;;;;6298055;28;20077;-84
2024/01/10 14:42:09;;;;;;;9.00;2.15;;;5.50;1.00;;;;;;6276583;28;20157;-84
2024/01/10 14:45:10;;;;;;;9.50;1.88;;;5.40;1.00;;;;;;6268391;28;20492;-85
2024/01/10 14:48:12;;;;;;;7.97;1.80;;;5.40;1.00;;;;;;6275618;28;20055;-84
2024/01/10 14:51:14;;;;;;;6.90;1.50;;;5.30;1.00;;;;;;6292865;28;20056;-84
2024/01/10 14:54:17;;;;;;;8.43;1.77;;;5.20;1.00;;;;;;6275379;28;20048;-83
2024/01/10 14:57:20;;;;;;;9.73;2.17;;;5.10;1.00;;;;;;6275805;28;20133;-83
2024/01/10 15:00:22;;;;;;;6.97;1.67;;;5.00;1.00;;;;;;6277017;28;20052;-82
2024/01/10 15:03:23;;;;;;;9.80;2.05;;;5.00;1.00;;;;;;6277717;28;20052;-89
2024/01/10 15:06:27;;;;;;;7.53;1.98;;;4.90;1.00;;;;;;6277786;28;20063;-87
2024/01/10 15:09:29;;;;;;;7.45;1.67;;;4.80;1.00;;;;;;6283951;28;20131;-83
2024/01/10 15:12:31;;;;;;;9.05;1.85;;;4.80;1.00;;;;;;6295788;28;20068;-85
2024/01/10 15:15:33;;;;;;;9.60;1.75;;;4.70;1.00;;;;;;6291520;28;20067;-81
2024/01/10 15:18:35;;;;;;;10.02;1.63;;;4.70;1.00;;;;;;6294391;28;20040;-84
2024/01/10 15:21:38;;;;;;;10.55;2.00;;;4.70;1.00;;;;;;6293219;28;20536;-88
2024/01/10 15:24:40;;;;;;;10.10;1.85;;;4.60;1.00;;;;;;6293215;28;20044;-79
2024/01/10 15:27:42;;;;;;;8.38;1.65;;;4.60;1.00;;;;;;6291862;28;20086;-80
2024/01/10 15:30:44;;;;;;;4.68;1.33;;;4.50;1.00;;;;;;6270854;28;20139;-81
2024/01/10 15:33:49;;;;;;;10.05;2.35;;;4.40;1.00;;;;;;6252734;28;20053;-81
2024/01/10 15:36:50;;;;;;;9.20;1.55;;;4.40;1.00;;;;;;6296175;28;20058;-80
2024/01/10 15:39:52;;;;;;;10.68;1.48;;;4.30;1.00;;;;;;6272372;28;20397;-81
2024/01/10 15:42:54;;;;;;;5.40;1.60;;;4.30;1.00;;;;;;6296247;28;20048;-79
2024/01/10 15:45:55;;;;;;;6.88;1.58;;;4.20;1.00;;;;;;6281055;28;20410;-82
2024/01/10 15:48:57;;;;;;;6.88;1.50;;;4.20;1.00;;;;;;6273411;28;20052;-84